createdAt,value
2022-08-28T00:01:49.556Z,60.87
2022-08-28T00:05:01.180Z,60.87
2022-08-28T00:07:47.653Z,61.01
2022-08-28T00:10:58.011Z,60.73
2022-08-28T00:13:34.274Z,60.78
2022-08-28T00:16:18.209Z,60.85
2022-08-28T00:19:03.551Z,60.82
2022-08-28T00:22:03.731Z,61.01
2022-08-28T00:25:07.615Z,60.82
2022-08-28T00:27:59.436Z,60.92
2022-08-28T00:31:00.230Z,60.79
2022-08-28T00:34:10.668Z,61.02
2022-08-28T00:36:58.705Z,60.87
2022-08-28T00:39:48.778Z,60.95
2022-08-28T00:42:33.297Z,61.03
2022-08-28T00:45:24.296Z,60.93
2022-08-28T00:48:01.375Z,60.60
2022-08-28T00:51:15.099Z,60.59
2022-08-28T00:54:15.363Z,60.66
2022-08-28T00:56:56.379Z,60.68
2022-08-28T00:59:45.662Z,60.52
2022-08-28T01:02:37.507Z,60.67
2022-08-28T01:05:49.401Z,60.37
2022-08-28T01:08:32.796Z,60.15
2022-08-28T01:11:23.106Z,59.90
2022-08-28T01:14:03.054Z,59.62
2022-08-28T01:16:38.843Z,59.67
2022-08-28T01:19:32.480Z,59.45
2022-08-28T01:22:21.847Z,59.57
2022-08-28T01:25:03.510Z,59.46
2022-08-28T01:27:43.849Z,59.65
2022-08-28T01:30:24.554Z,59.83
2022-08-28T01:33:16.832Z,59.75
2022-08-28T01:36:25.820Z,59.61
2022-08-28T01:39:23.269Z,59.65
2022-08-28T01:42:13.539Z,59.64
2022-08-28T01:45:10.669Z,59.59
2022-08-28T01:48:01.265Z,59.32
2022-08-28T01:51:19.510Z,59.18
2022-08-28T01:54:12.047Z,59.31
2022-08-28T01:57:06.247Z,59.13
2022-08-28T01:59:54.878Z,58.87
2022-08-28T02:02:48.856Z,58.84
2022-08-28T02:05:39.877Z,58.73
2022-08-28T02:08:43.941Z,58.74
2022-08-28T02:11:33.243Z,58.69
2022-08-28T02:14:12.803Z,58.83
2022-08-28T02:16:44.571Z,58.80
2022-08-28T02:19:42.415Z,58.73
2022-08-28T02:22:52.782Z,59.04
2022-08-28T02:26:05.150Z,59.21
2022-08-28T02:28:54.315Z,59.10
2022-08-28T02:31:53.799Z,59.16
2022-08-28T02:35:03.816Z,59.17
2022-08-28T02:37:55.859Z,59.29
2022-08-28T02:40:45.691Z,59.47
2022-08-28T02:43:31.729Z,59.49
2022-08-28T02:46:26.036Z,59.72
2022-08-28T02:49:23.866Z,59.76
2022-08-28T02:52:33.016Z,59.68
2022-08-28T02:55:25.523Z,59.76
2022-08-28T02:58:35.047Z,60.00
2022-08-28T03:01:26.728Z,60.14
2022-08-28T03:04:18.739Z,60.14
2022-08-28T03:07:13.090Z,60.26
2022-08-28T03:10:02.934Z,60.38
2022-08-28T03:12:45.998Z,60.41
2022-08-28T03:15:44.340Z,60.55
2022-08-28T03:18:43.842Z,60.76
2022-08-28T03:21:43.084Z,60.70
2022-08-28T03:24:37.880Z,60.81
2022-08-28T03:27:13.837Z,60.74
2022-08-28T03:30:07.901Z,61.10
2022-08-28T03:33:00.689Z,61.16
2022-08-28T03:35:55.498Z,61.24
2022-08-28T03:38:44.634Z,61.21
2022-08-28T03:41:54.584Z,61.40
2022-08-28T03:44:47.239Z,61.47
2022-08-28T03:47:55.166Z,61.57
2022-08-28T03:50:44.160Z,61.46
2022-08-28T03:53:36.814Z,61.70
2022-08-28T03:56:11.185Z,61.68
2022-08-28T03:59:02.784Z,62.06
2022-08-28T04:01:46.957Z,62.08
2022-08-28T04:04:56.423Z,62.24
2022-08-28T04:08:06.325Z,62.37
2022-08-28T04:10:54.516Z,62.33
2022-08-28T04:13:43.782Z,62.52
2022-08-28T04:16:32.905Z,62.69
2022-08-28T04:19:43.093Z,62.80
2022-08-28T04:22:43.370Z,62.89
2022-08-28T04:25:54.479Z,63.05
2022-08-28T04:28:57.314Z,63.16
2022-08-28T04:31:37.084Z,63.38
2022-08-28T04:34:39.226Z,63.11
2022-08-28T04:37:49.605Z,63.32
2022-08-28T04:40:58.895Z,63.50
2022-08-28T04:43:58.565Z,63.49
2022-08-28T04:47:09.115Z,63.71
2022-08-28T04:50:04.134Z,63.74
2022-08-28T04:52:51.506Z,63.68
2022-08-28T04:55:53.657Z,63.74
2022-08-28T04:58:47.163Z,63.63
2022-08-28T05:01:40.862Z,63.61
2022-08-28T05:04:22.828Z,63.70
2022-08-28T05:07:14.183Z,63.69
2022-08-28T05:09:53.615Z,63.84
2022-08-28T05:12:49.984Z,63.90
2022-08-28T05:15:50.956Z,63.97
2022-08-28T05:18:39.458Z,64.26
2022-08-28T05:21:49.001Z,64.22
2022-08-28T05:24:41.186Z,64.19
2022-08-28T05:27:28.352Z,64.34
2022-08-28T05:30:38.962Z,64.42
2022-08-28T05:33:29.442Z,64.33
2022-08-28T05:36:11.465Z,64.34
2022-08-28T05:38:57.821Z,64.48
2022-08-28T05:41:40.117Z,64.53
2022-08-28T05:44:31.500Z,64.86
2022-08-28T05:47:10.462Z,64.96
2022-08-28T05:49:52.939Z,65.21
2022-08-28T05:52:45.477Z,65.16
2022-08-28T05:55:28.813Z,65.23
2022-08-28T05:58:30.887Z,65.37
2022-08-28T06:01:29.713Z,65.62
2022-08-28T06:04:40.070Z,65.73
2022-08-28T06:07:27.760Z,65.88
2022-08-28T06:10:36.830Z,66.05
2022-08-28T06:13:40.150Z,66.02
2022-08-28T06:16:53.359Z,66.19
2022-08-28T06:19:31.582Z,66.24
2022-08-28T06:22:14.281Z,66.13
2022-08-28T06:25:21.608Z,66.27
2022-08-28T06:28:28.480Z,66.33
2022-08-28T06:31:24.204Z,66.22
2022-08-28T06:34:14.589Z,66.31
2022-08-28T06:37:23.766Z,66.42
2022-08-28T06:40:46.072Z,66.35
2022-08-28T06:43:29.279Z,66.23
2022-08-28T06:46:40.685Z,66.40
2022-08-28T06:49:49.914Z,66.35
2022-08-28T06:52:39.004Z,66.32
2022-08-28T06:55:15.971Z,66.22
2022-08-28T06:58:07.895Z,66.32
2022-08-28T07:00:46.155Z,66.25
2022-08-28T07:03:36.343Z,66.54
2022-08-28T07:06:21.662Z,66.53
2022-08-28T07:09:14.210Z,66.50
2022-08-28T07:12:06.117Z,66.54
2022-08-28T07:14:44.022Z,66.61
2022-08-28T07:17:18.744Z,66.48
2022-08-28T07:20:22.811Z,66.50
2022-08-28T07:23:12.735Z,66.58
2022-08-28T07:25:44.924Z,66.40
2022-08-28T07:28:37.191Z,66.21
2022-08-28T07:31:36.053Z,66.03
2022-08-28T07:34:45.454Z,65.68
2022-08-28T07:37:37.424Z,65.59
2022-08-28T07:40:12.124Z,65.31
2022-08-28T07:43:02.287Z,65.06
2022-08-28T07:45:33.082Z,64.73
2022-08-28T07:48:24.754Z,64.44
2022-08-28T07:50:53.964Z,64.33
2022-08-28T07:53:25.748Z,64.24
2022-08-28T07:55:54.977Z,63.89
2022-08-28T07:58:25.576Z,63.61
2022-08-28T08:00:55.328Z,63.32
2022-08-28T08:03:46.684Z,63.67
2022-08-28T08:06:18.358Z,63.24
2022-08-28T08:08:48.304Z,63.18
2022-08-28T08:11:24.694Z,63.13
2022-08-28T08:13:54.514Z,63.07
2022-08-28T08:16:25.469Z,62.97
2022-08-28T08:18:54.760Z,62.77
2022-08-28T08:21:28.283Z,62.72
2022-08-28T08:23:59.335Z,62.61
2022-08-28T08:26:29.077Z,62.32
2022-08-28T08:29:00.852Z,61.73
2022-08-28T08:31:32.001Z,61.43
2022-08-28T08:34:03.964Z,61.06
2022-08-28T08:36:34.962Z,60.62
2022-08-28T08:39:06.538Z,60.25
2022-08-28T08:41:47.614Z,60.06
2022-08-28T08:44:33.274Z,59.92
2022-08-28T08:47:21.664Z,59.65
2022-08-28T08:49:54.996Z,59.53
2022-08-28T08:52:34.997Z,59.14
2022-08-28T08:55:09.462Z,58.93
2022-08-28T08:57:46.063Z,58.48
2022-08-28T09:00:19.750Z,58.52
2022-08-28T09:02:56.660Z,58.09
2022-08-28T09:05:37.968Z,57.74
2022-08-28T09:08:12.710Z,57.56
2022-08-28T09:10:48.113Z,57.53
2022-08-28T09:13:26.118Z,56.88
2022-08-28T09:15:55.112Z,56.61
2022-08-28T09:18:27.512Z,56.45
2022-08-28T09:20:58.938Z,56.23
2022-08-28T09:23:30.047Z,55.48
2022-08-28T09:26:01.842Z,53.76
2022-08-28T09:28:35.259Z,51.01
2022-08-28T09:31:07.128Z,49.15
2022-08-28T09:33:41.801Z,46.89
2022-08-28T09:36:29.632Z,45.50
2022-08-28T09:39:11.424Z,44.20
2022-08-28T09:42:08.879Z,42.77
2022-08-28T09:44:51.950Z,42.87
2022-08-28T09:47:48.232Z,42.76
2022-08-28T09:50:33.029Z,43.26
2022-08-28T09:53:17.335Z,44.11
2022-08-28T09:55:55.483Z,44.08
2022-08-28T09:58:32.812Z,43.71
2022-08-28T10:01:10.401Z,43.12
2022-08-28T10:03:51.603Z,43.95
2022-08-28T10:06:26.594Z,44.24
2022-08-28T10:09:06.235Z,44.41
2022-08-28T10:11:44.666Z,44.51
2022-08-28T10:14:27.002Z,44.48
2022-08-28T10:17:06.122Z,44.84
2022-08-28T10:19:46.089Z,45.16
2022-08-28T10:22:28.297Z,45.32
2022-08-28T10:25:13.491Z,45.35
2022-08-28T10:27:54.274Z,45.83
2022-08-28T10:30:24.897Z,45.88
2022-08-28T10:33:16.688Z,46.20
2022-08-28T10:35:56.823Z,46.35
2022-08-28T10:38:29.951Z,46.15
2022-08-28T10:41:04.492Z,45.79
2022-08-28T10:43:36.680Z,45.96
2022-08-28T10:46:12.175Z,46.84
2022-08-28T10:48:47.351Z,47.37
2022-08-28T10:51:20.481Z,47.13
2022-08-28T10:54:18.876Z,47.50
2022-08-28T10:56:56.842Z,48.06
2022-08-28T10:59:29.541Z,48.50
2022-08-28T11:01:59.594Z,48.70
2022-08-28T11:04:31.668Z,48.84
2022-08-28T11:07:05.627Z,48.94
2022-08-28T11:09:37.320Z,49.55
2022-08-28T11:12:28.286Z,49.63
2022-08-28T11:14:57.214Z,50.27
2022-08-28T11:17:41.142Z,50.26
2022-08-28T11:20:17.829Z,50.46
2022-08-28T11:22:50.066Z,50.77
2022-08-28T11:25:26.604Z,50.66
2022-08-28T11:28:40.886Z,50.82
2022-08-28T11:31:35.502Z,50.64
2022-08-28T11:34:05.809Z,50.28
2022-08-28T11:37:02.449Z,50.72
2022-08-28T11:39:31.587Z,51.16
2022-08-28T11:42:38.314Z,50.88
2022-08-28T11:45:20.209Z,50.66
2022-08-28T11:47:56.300Z,50.66
2022-08-28T11:50:29.149Z,51.07
2022-08-28T11:53:33.636Z,50.67
2022-08-28T11:56:31.862Z,50.35
2022-08-28T11:59:26.063Z,49.84
2022-08-28T12:02:51.905Z,49.68
2022-08-28T12:05:53.069Z,48.14
2022-08-28T12:09:09.922Z,47.65
2022-08-28T12:12:00.355Z,47.60
2022-08-28T12:15:04.133Z,47.87
2022-08-28T12:17:49.095Z,47.82
2022-08-28T12:20:38.836Z,47.55
2022-08-28T12:23:37.643Z,47.78
2022-08-28T12:26:09.989Z,48.17
2022-08-28T12:28:49.092Z,48.34
2022-08-28T12:32:12.408Z,48.08
2022-08-28T12:34:49.963Z,47.51
2022-08-28T12:37:50.911Z,47.77
2022-08-28T12:40:26.607Z,47.90
2022-08-28T12:42:59.670Z,48.39
2022-08-28T12:45:32.363Z,48.54
2022-08-28T12:48:04.479Z,48.69
2022-08-28T12:50:36.977Z,48.71
2022-08-28T12:53:17.605Z,48.99
2022-08-28T12:55:47.215Z,48.87
2022-08-28T12:58:29.513Z,48.80
2022-08-28T13:01:03.426Z,48.76
2022-08-28T13:03:33.247Z,48.82
2022-08-28T13:06:06.268Z,48.76
2022-08-28T13:08:36.772Z,49.11
2022-08-28T13:11:05.935Z,49.43
2022-08-28T13:13:37.890Z,49.93
2022-08-28T13:16:08.853Z,50.10
2022-08-28T13:18:55.441Z,50.22
2022-08-28T13:21:34.992Z,50.61
2022-08-28T13:24:26.869Z,50.61
2022-08-28T13:27:08.865Z,50.91
2022-08-28T13:29:39.258Z,51.23
2022-08-28T13:32:15.472Z,51.69
2022-08-28T13:35:04.308Z,52.08
2022-08-28T13:37:45.526Z,52.06
2022-08-28T13:43:16.210Z,52.01
2022-08-28T13:45:47.696Z,52.14
2022-08-28T13:48:18.737Z,51.97
2022-08-28T13:50:50.148Z,52.03
2022-08-28T13:53:21.053Z,52.27
2022-08-28T13:55:51.349Z,52.22
2022-08-28T13:58:20.398Z,52.26
2022-08-28T14:00:52.611Z,52.18
2022-08-28T14:03:37.869Z,52.18
2022-08-28T14:06:10.917Z,52.06
2022-08-28T14:08:40.857Z,51.89
2022-08-28T14:11:12.986Z,51.37
2022-08-28T14:13:46.714Z,50.78
2022-08-28T14:16:25.183Z,50.63
2022-08-28T14:18:53.518Z,50.51
2022-08-28T14:21:23.847Z,50.30
2022-08-28T14:23:52.860Z,49.56
2022-08-28T14:26:21.679Z,48.89
2022-08-28T14:28:50.407Z,48.75
2022-08-28T14:31:26.460Z,47.85
2022-08-28T14:33:56.796Z,46.93
2022-08-28T14:36:25.716Z,46.65
2022-08-28T14:38:57.503Z,46.60
2022-08-28T14:41:26.677Z,46.20
2022-08-28T14:43:56.513Z,45.06
2022-08-28T14:46:27.990Z,44.87
2022-08-28T14:48:57.957Z,44.88
2022-08-28T14:51:27.478Z,45.49
2022-08-28T14:53:57.867Z,45.76
2022-08-28T14:56:28.062Z,45.59
2022-08-28T14:59:02.429Z,45.59
2022-08-28T15:01:40.706Z,45.24
2022-08-28T15:04:23.047Z,45.34
2022-08-28T15:06:56.473Z,45.08
2022-08-28T15:09:28.041Z,45.23
2022-08-28T15:11:57.048Z,44.92
2022-08-28T15:14:25.859Z,44.62
2022-08-28T15:16:55.809Z,43.93
2022-08-28T15:19:29.466Z,44.17
2022-08-28T15:21:58.643Z,44.29
2022-08-28T15:24:30.560Z,44.14
2022-08-28T15:26:59.501Z,43.67
2022-08-28T15:29:29.912Z,44.06
2022-08-28T15:32:00.155Z,44.27
2022-08-28T15:34:33.472Z,44.08
2022-08-28T15:37:07.804Z,43.75
2022-08-28T15:39:57.537Z,43.94
2022-08-28T15:42:29.864Z,44.86
2022-08-28T15:44:58.928Z,44.56
2022-08-28T15:47:27.664Z,44.85
2022-08-28T15:49:57.267Z,45.45
2022-08-28T15:52:25.944Z,46.06
2022-08-28T15:54:55.181Z,46.76
2022-08-28T15:57:24.205Z,47.14
2022-08-28T15:59:53.963Z,47.55
2022-08-28T16:02:25.131Z,47.89
2022-08-28T16:04:54.707Z,47.77
2022-08-28T16:07:24.734Z,47.57
2022-08-28T16:10:16.529Z,47.77
2022-08-28T16:12:47.844Z,48.20
2022-08-28T16:15:21.114Z,48.21
2022-08-28T16:17:50.355Z,48.40
2022-08-28T16:20:19.276Z,48.63
2022-08-28T16:22:48.047Z,48.69
2022-08-28T16:25:17.469Z,48.13
2022-08-28T16:27:46.166Z,47.68
2022-08-28T16:30:16.151Z,47.70
2022-08-28T16:32:46.839Z,47.86
2022-08-28T16:35:16.438Z,48.02
2022-08-28T16:37:45.644Z,48.55
2022-08-28T16:40:17.904Z,48.88
2022-08-28T16:42:51.284Z,49.40
2022-08-28T16:45:21.355Z,49.70
2022-08-28T16:47:50.302Z,49.97
2022-08-28T16:50:19.435Z,50.43
2022-08-28T16:52:48.202Z,50.56
2022-08-28T16:55:17.040Z,50.86
2022-08-28T16:58:06.859Z,51.35
2022-08-28T17:00:42.061Z,51.60
2022-08-28T17:03:26.181Z,51.82
2022-08-28T17:05:57.104Z,51.69
2022-08-28T17:08:26.303Z,51.43
2022-08-28T17:10:58.624Z,51.63
2022-08-28T17:13:27.398Z,51.40
2022-08-28T17:15:56.219Z,50.53
2022-08-28T17:18:25.131Z,50.09
2022-08-28T17:21:11.827Z,49.97
2022-08-28T17:23:49.231Z,50.21
2022-08-28T17:26:18.684Z,50.20
2022-08-28T17:28:47.824Z,50.23
2022-08-28T17:31:17.444Z,49.96
2022-08-28T17:33:46.893Z,49.87
2022-08-28T17:36:32.492Z,49.88
2022-08-28T17:39:04.721Z,50.02
2022-08-28T17:41:34.103Z,50.19
2022-08-28T17:44:04.601Z,50.39
2022-08-28T17:46:45.915Z,50.74
2022-08-28T17:49:26.415Z,51.21
2022-08-28T17:52:01.648Z,51.42
2022-08-28T17:54:30.779Z,51.76
2022-08-28T17:57:19.737Z,52.38
2022-08-28T18:00:19.010Z,52.73
2022-08-28T18:02:51.195Z,52.82
2022-08-28T18:05:29.135Z,53.11
2022-08-28T18:07:58.184Z,52.83
2022-08-28T18:10:27.265Z,52.75
2022-08-28T18:12:59.198Z,52.82
2022-08-28T18:15:28.480Z,52.89
2022-08-28T18:17:57.513Z,53.07
2022-08-28T18:20:29.229Z,53.27
2022-08-28T18:23:01.062Z,53.55
2022-08-28T18:25:42.188Z,53.88
2022-08-28T18:28:19.609Z,54.15
2022-08-28T18:30:51.943Z,54.46
2022-08-28T18:33:23.212Z,54.96
2022-08-28T18:35:54.690Z,55.12
2022-08-28T18:38:28.184Z,55.58
2022-08-28T18:40:58.555Z,55.91
2022-08-28T18:43:28.149Z,56.16
2022-08-28T18:46:01.825Z,56.67
2022-08-28T18:48:30.769Z,57.12
2022-08-28T18:51:05.448Z,57.56
2022-08-28T18:53:34.362Z,58.06
2022-08-28T18:56:04.918Z,58.53
2022-08-28T18:58:35.956Z,58.91
2022-08-28T19:01:17.786Z,59.37
2022-08-28T19:03:46.761Z,59.85
2022-08-28T19:06:16.675Z,60.19
2022-08-28T19:08:51.570Z,60.81
2022-08-28T19:11:23.922Z,61.25
2022-08-28T19:14:03.740Z,61.73
2022-08-28T19:17:02.854Z,62.00
2022-08-28T19:19:41.858Z,62.23
2022-08-28T19:22:10.662Z,62.27
2022-08-28T19:24:42.840Z,62.78
2022-08-28T19:27:15.388Z,62.92
2022-08-28T19:29:44.611Z,63.12
2022-08-28T19:32:16.540Z,63.47
2022-08-28T19:34:55.723Z,63.67
2022-08-28T19:37:42.094Z,64.01
2022-08-28T19:40:28.071Z,64.37
2022-08-28T19:43:43.210Z,64.51
2022-08-28T19:46:19.415Z,64.92
2022-08-28T19:48:56.454Z,65.18
2022-08-28T19:51:36.942Z,65.52
2022-08-28T19:54:10.730Z,65.51
2022-08-28T19:56:59.865Z,65.98
2022-08-28T19:59:37.617Z,66.06
2022-08-28T20:02:31.908Z,66.39
2022-08-28T20:05:04.536Z,66.83
2022-08-28T20:07:36.721Z,67.01
2022-08-28T20:10:21.548Z,67.36
2022-08-28T20:13:11.076Z,67.60
2022-08-28T20:16:11.814Z,68.24
2022-08-28T20:18:58.983Z,68.32
2022-08-28T20:21:49.946Z,68.83
2022-08-28T20:24:40.975Z,69.06
2022-08-28T20:27:30.269Z,69.41
2022-08-28T20:30:37.904Z,69.70
2022-08-28T20:33:16.996Z,69.87
2022-08-28T20:36:11.847Z,70.37
2022-08-28T20:39:00.277Z,70.49
2022-08-28T20:41:32.235Z,70.80
2022-08-28T20:44:41.674Z,71.04
2022-08-28T20:47:28.173Z,71.21
2022-08-28T20:50:03.128Z,71.54
2022-08-28T20:52:37.535Z,71.60
2022-08-28T20:55:24.150Z,71.86
2022-08-28T20:58:09.514Z,71.86
2022-08-28T21:01:02.209Z,72.09
2022-08-28T21:03:59.343Z,72.22
2022-08-28T21:06:48.750Z,72.41
2022-08-28T21:09:39.576Z,72.69
2022-08-28T21:12:20.058Z,72.76
2022-08-28T21:15:03.995Z,72.85
2022-08-28T21:17:52.190Z,73.09
2022-08-28T21:21:09.070Z,73.24
2022-08-28T21:23:54.016Z,73.64
2022-08-28T21:26:50.274Z,73.74
2022-08-28T21:29:39.440Z,73.81
2022-08-28T21:32:32.237Z,73.94
2022-08-28T21:35:15.976Z,74.23
2022-08-28T21:37:48.944Z,74.19
2022-08-28T21:40:31.251Z,74.24
2022-08-28T21:43:00.784Z,74.54
2022-08-28T21:45:31.703Z,74.63
2022-08-28T21:48:03.931Z,74.77
2022-08-28T21:50:34.100Z,74.88
2022-08-28T21:53:26.524Z,74.78
2022-08-28T21:56:08.156Z,74.91
2022-08-28T21:59:17.471Z,75.11
2022-08-28T22:02:02.296Z,75.01
2022-08-28T22:05:12.430Z,75.28
2022-08-28T22:08:02.229Z,75.44
2022-08-28T22:11:13.126Z,75.62
2022-08-28T22:14:07.897Z,75.80
2022-08-28T22:17:00.792Z,75.90
2022-08-28T22:19:42.990Z,76.08
2022-08-28T22:22:44.238Z,76.15
2022-08-28T22:25:26.599Z,76.28
2022-08-28T22:28:24.123Z,76.45
2022-08-28T22:31:04.723Z,76.33
2022-08-28T22:34:15.906Z,76.54
2022-08-28T22:36:44.922Z,76.61
2022-08-28T22:39:13.887Z,76.85
2022-08-28T22:42:30.254Z,76.85
2022-08-28T22:45:25.583Z,76.91
2022-08-28T22:48:54.518Z,77.01
2022-08-28T22:51:32.370Z,77.24
2022-08-28T22:54:27.477Z,77.26
2022-08-28T22:57:06.540Z,77.30
2022-08-28T22:59:41.779Z,77.39
2022-08-28T23:02:27.541Z,77.55
2022-08-28T23:04:59.735Z,77.60
2022-08-28T23:07:58.963Z,77.66
2022-08-28T23:10:58.402Z,77.54
2022-08-28T23:13:33.231Z,77.80
2022-08-28T23:16:45.583Z,77.64
2022-08-28T23:19:31.213Z,77.67
2022-08-28T23:22:31.961Z,77.99
2022-08-28T23:30:15.788Z,77.94
2022-08-28T23:32:45.009Z,77.97
2022-08-28T23:35:54.263Z,77.87
2022-08-28T23:43:51.478Z,78.16
2022-08-28T23:46:53.329Z,78.05
2022-08-28T23:49:43.065Z,77.84
2022-08-28T23:53:16.753Z,77.91
2022-08-28T23:56:15.171Z,77.87
2022-08-28T23:59:21.346Z,78.24
